Time;durP1;ratioP1;P1;durP2;ratioP2;P2;SDS_P1;SDS_P2;PMS_P1;PMS_P2;Temp;Humidity;BMP_temperature;BMP_pressure;BME280_temperature;BME280_humidity;BME280_pressure;Samples;Min_cycle;Max_cycle;Signal;HPM_P1;HPM_P2
2021/12/17 00:05:03;;;;;;;4.43;4.22;;;;;;;7.80;100.00;103486.12;4347840;32;20057;-67
2021/12/17 00:07:30;;;;;;;3.75;3.65;;;;;;;7.85;100.00;103494.84;4342147;32;20356;-68
2021/12/17 00:09:56;;;;;;;5.40;5.10;;;;;;;7.79;100.00;103486.97;4351577;32;20587;-68
2021/12/17 00:12:22;;;;;;;4.37;4.18;;;;;;;7.84;100.00;103500.06;4345601;32;20066;-67
2021/12/17 00:14:49;;;;;;;3.78;3.65;;;;;;;7.82;100.00;103500.09;4349225;32;20172;-68
2021/12/17 00:17:20;;;;;;;3.80;3.65;;;;;;;7.79;100.00;103500.06;4349995;32;20080;-68
2021/12/17 00:51:03;;;;;;;3.80;3.67;;;;;;;7.64;100.00;103466.00;4352322;32;20077;-68
2021/12/17 00:52:37;;;;;;;4.10;3.90;;;;;;;7.64;100.00;103461.66;4336464;32;20102;-68
2021/12/17 00:55:04;;;;;;;5.75;5.47;;;;;;;7.71;100.00;103480.84;4350918;32;20086;-68
2021/12/17 00:57:35;;;;;;;3.78;3.62;;;;;;;7.53;100.00;103445.91;4342332;32;20540;-68
2021/12/17 01:00:02;;;;;;;6.47;6.17;;;;;;;7.57;100.00;103468.56;4354829;32;20066;-68
2021/12/17 01:02:29;;;;;;;4.87;4.57;;;;;;;7.55;100.00;103441.56;4358972;32;20599;-67
2021/12/17 01:04:57;;;;;;;5.03;4.82;;;;;;;7.72;100.00;103473.03;4342181;32;20094;-68
2021/12/17 01:07:24;;;;;;;3.70;3.58;;;;;;;7.74;100.00;103467.81;4347039;32;20074;-67
2021/12/17 01:09:50;;;;;;;3.60;3.50;;;;;;;7.74;100.00;103463.44;4342904;32;20171;-66
2021/12/17 01:12:15;;;;;;;4.75;4.53;;;;;;;7.75;100.00;103453.84;4348869;32;20215;-68
2021/12/17 01:14:41;;;;;;;4.12;3.92;;;;;;;7.71;100.00;103452.97;4345029;32;20077;-68
2021/12/17 01:17:07;;;;;;;6.07;5.78;;;;;;;7.67;100.00;103450.34;4344380;32;20145;-67
2021/12/17 01:24:50;;;;;;;4.43;4.07;;;;;;;7.73;100.00;103437.28;4373436;32;20144;-67
2021/12/17 01:35:29;;;;;;;4.80;4.20;;;;;;;7.79;100.00;103439.91;4354515;32;20089;-68
2021/12/17 01:43:26;;;;;;;5.15;4.75;;;;;;;7.69;100.00;103436.41;4343090;32;20643;-68
2021/12/17 01:45:51;;;;;;;3.85;3.72;;;;;;;7.76;100.00;103446.03;4347105;32;20067;-68
2021/12/17 01:48:21;;;;;;;4.07;3.87;;;;;;;7.75;100.00;103452.09;4350117;32;20196;-67
2021/12/17 01:56:29;;;;;;;4.10;3.90;;;;;;;7.67;100.00;103435.50;4362562;32;20089;-68
2021/12/17 02:01:39;;;;;;;6.12;5.53;;;;;;;7.56;100.00;103442.47;4360116;32;20582;-68
2021/12/17 02:04:04;;;;;;;5.85;5.55;;;;;;;7.39;100.00;103427.53;4339260;32;20086;-68
2021/12/17 02:06:33;;;;;;;4.68;4.47;;;;;;;7.63;100.00;103467.75;4360936;32;20160;-68
2021/12/17 02:09:00;;;;;;;7.03;6.62;;;;;;;7.50;100.00;103435.47;4347893;32;20260;-67
2021/12/17 02:19:45;;;;;;;4.18;3.80;;;;;;;7.62;100.00;103465.09;4365783;32;20329;-69
2021/12/17 02:22:53;;;;;;;3.70;3.60;;;;;;;7.61;100.00;103464.25;4337821;32;20332;-68
2021/12/17 02:30:51;;;;;;;4.55;4.35;;;;;;;7.49;100.00;103470.28;4348815;32;20597;-69
2021/12/17 02:33:14;;;;;;;3.62;3.53;;;;;;;7.47;100.00;103478.97;4347581;32;20085;-72
2021/12/17 02:35:43;;;;;;;3.65;3.55;;;;;;;7.48;100.00;103472.91;4349984;32;20488;-68
2021/12/17 02:38:10;;;;;;;5.00;4.72;;;;;;;7.46;100.00;103475.50;4345674;32;20194;-69
2021/12/17 02:45:45;;;;;;;3.90;3.70;;;;;;;7.44;100.00;103476.34;4364186;32;20069;-68
2021/12/17 02:48:13;;;;;;;5.35;5.15;;;;;;;7.45;100.00;103478.09;4345588;32;20409;-67
2021/12/17 02:50:47;;;;;;;4.28;4.07;;;;;;;7.45;100.00;103476.34;4327991;32;20077;-67
2021/12/17 02:53:13;;;;;;;5.45;5.15;;;;;;;7.44;100.00;103477.25;4353360;32;20128;-68
2021/12/17 02:55:41;;;;;;;4.57;4.37;;;;;;;7.44;100.00;103479.84;4345604;32;20066;-68
2021/12/17 02:58:06;;;;;;;5.62;5.40;;;;;;;7.37;100.00;103463.25;4346450;32;20073;-68
2021/12/17 03:00:32;;;;;;;6.30;3.95;;;;;;;7.30;100.00;103451.03;4349089;32;20197;-69
2021/12/17 03:02:58;;;;;;;5.53;5.22;;;;;;;7.45;100.00;103468.50;4355891;32;20087;-68
2021/12/17 03:05:23;;;;;;;4.22;4.03;;;;;;;7.46;100.00;103456.34;4343204;32;20145;-68
2021/12/17 03:07:49;;;;;;;3.60;3.50;;;;;;;7.48;100.00;103468.53;4343962;32;20504;-67
2021/12/17 03:10:15;;;;;;;5.87;5.57;;;;;;;7.51;100.00;103455.47;4342441;32;20875;-68
2021/12/17 03:12:51;;;;;;;3.60;3.50;;;;;;;7.54;100.00;103458.13;4358713;32;20089;-68
2021/12/17 03:15:42;;;;;;;3.53;3.42;;;;;;;7.54;100.00;103452.91;4348545;32;20173;-68
2021/12/17 03:25:59;;;;;;;6.53;6.12;;;;;;;7.64;100.00;103460.75;4346389;32;20157;-68
2021/12/17 03:28:24;;;;;;;4.20;4.00;;;;;;;7.64;100.00;103452.91;4343322;32;20084;-69
2021/12/17 03:30:50;;;;;;;4.30;4.10;;;;;;;5.84;100.00;103157.84;4336186;32;20070;-67
2021/12/17 03:33:15;;;;;;;4.70;4.50;;;;;;;7.67;100.00;103458.19;4341497;32;20610;-69
2021/12/17 03:35:40;;;;;;;5.55;5.25;;;;;;;7.68;100.00;103454.72;4347418;32;20074;-68
2021/12/17 03:38:06;;;;;;;5.78;5.47;;;;;;;7.68;100.00;103459.94;4347317;32;20471;-68
2021/12/17 03:40:33;;;;;;;3.85;3.72;;;;;;;7.69;100.00;103456.44;4349642;32;20147;-69
2021/12/17 03:43:03;;;;;;;5.65;5.35;;;;;;;7.59;100.00;103459.00;4348979;32;20074;-68
2021/12/17 03:45:28;;;;;;;3.75;3.65;;;;;;;7.58;100.00;103454.66;4351918;32;20351;-68
2021/12/17 03:47:54;;;;;;;4.60;4.35;;;;;;;7.53;100.00;103452.88;4339306;32;20089;-68
2021/12/17 03:50:19;;;;;;;4.45;4.25;;;;;;;7.54;100.00;103458.13;4365634;32;20070;-68
2021/12/17 03:52:44;;;;;;;4.35;4.15;;;;;;;7.53;100.00;103458.97;4349582;32;20077;-69
2021/12/17 03:55:10;;;;;;;5.05;4.75;;;;;;;7.46;100.00;103448.50;4345865;32;20659;-68
2021/12/17 03:57:36;;;;;;;4.43;4.22;;;;;;;7.39;100.00;103452.81;4339601;32;20082;-68
2021/12/17 04:00:03;;;;;;;4.90;4.70;;;;;;;7.38;100.00;103453.69;4358169;32;20079;-69
2021/12/17 04:02:29;;;;;;;4.20;4.00;;;;;;;7.38;100.00;103451.06;4358331;32;20094;-68
2021/12/17 04:04:54;;;;;;;5.95;5.45;;;;;;;7.41;100.00;103447.59;4348962;32;20184;-67
2021/12/17 04:07:19;;;;;;;4.07;3.87;;;;;;;6.95;100.00;103364.63;4348231;32;20066;-68
2021/12/17 04:09:45;;;;;;;4.65;4.43;;;;;;;7.46;100.00;103446.75;4350637;32;20062;-68
2021/12/17 04:12:15;;;;;;;5.05;4.85;;;;;;;7.49;100.00;103452.00;4347316;32;20520;-68
2021/12/17 04:14:46;;;;;;;4.07;3.87;;;;;;;7.50;100.00;103451.13;4347203;32;20077;-69
2021/12/17 04:17:13;;;;;;;5.65;5.25;;;;;;;7.51;100.00;103458.09;4346974;32;20702;-68
2021/12/17 04:19:38;;;;;;;4.00;3.83;;;;;;;7.51;100.00;103457.22;4357318;32;20070;-69
2021/12/17 04:22:04;;;;;;;5.55;5.25;;;;;;;7.51;100.00;103468.53;4341099;32;20069;-68
2021/12/17 04:24:29;;;;;;;4.50;4.20;;;;;;;7.47;100.00;103452.84;4346051;32;20074;-69
2021/12/17 04:26:55;;;;;;;4.93;4.72;;;;;;;7.37;100.00;103434.50;4346693;32;20193;-68
2021/12/17 04:29:21;;;;;;;3.95;3.75;;;;;;;6.44;100.00;103275.59;4357388;32;20419;-69
2021/12/17 04:31:52;;;;;;;3.60;3.50;;;;;;;6.99;100.00;103366.41;4346178;32;20188;-68
2021/12/17 04:34:18;;;;;;;3.90;3.70;;;;;;;7.50;100.00;103456.38;4350109;32;20089;-69
2021/12/17 04:36:46;;;;;;;4.10;3.87;;;;;;;7.05;100.00;103369.03;4342874;32;20181;-68
2021/12/17 04:39:11;;;;;;;4.25;4.05;;;;;;;7.52;100.00;103451.16;4348586;32;20209;-68
2021/12/17 04:46:38;;;;;;;4.00;3.80;;;;;;;7.56;100.00;103460.75;4350993;32;20323;-68
2021/12/17 04:59:56;;;;;;;5.85;5.55;;;;;;;7.58;100.00;103452.03;4334134;32;20069;-68
2021/12/17 05:02:21;;;;;;;5.05;4.70;;;;;;;7.58;100.00;103448.56;4332315;32;20108;-68
2021/12/17 05:04:47;;;;;;;3.60;3.50;;;;;;;7.59;100.00;103456.38;4343831;32;20426;-67
2021/12/17 05:07:13;;;;;;;4.40;4.20;;;;;;;7.57;100.00;103460.72;4332036;32;20078;-68
2021/12/17 05:09:50;;;;;;;3.92;3.75;;;;;;;7.58;100.00;103462.50;4332894;32;20483;-69
2021/12/17 05:23:10;;;;;;;5.18;4.97;;;;;;;7.51;100.00;103446.78;4345913;32;20591;-68
2021/12/17 05:25:35;;;;;;;4.07;3.87;;;;;;;7.55;100.00;103465.09;4332493;32;20075;-68
2021/12/17 05:28:02;;;;;;;7.47;7.03;;;;;;;7.38;100.00;103448.47;4340546;32;20093;-68
2021/12/17 05:30:31;;;;;;;4.05;3.85;;;;;;;7.53;100.00;103460.72;4335324;32;20140;-67
2021/12/17 05:32:56;;;;;;;5.30;5.00;;;;;;;7.53;100.00;103461.59;4317291;32;20165;-67
2021/12/17 05:35:21;;;;;;;4.07;3.87;;;;;;;7.54;100.00;103463.34;4336324;32;20074;-68
2021/12/17 05:37:47;;;;;;;3.95;3.78;;;;;;;7.53;100.00;103448.53;4331614;32;20143;-68
2021/12/17 05:40:12;;;;;;;3.75;3.65;;;;;;;7.54;100.00;103458.13;4329715;32;20569;-67
2021/12/17 05:42:39;;;;;;;3.97;3.78;;;;;;;7.39;100.00;103424.06;4335365;32;20082;-68
2021/12/17 05:45:20;;;;;;;5.35;5.15;;;;;;;7.53;100.00;103456.38;4323484;32;20097;-68
2021/12/17 05:47:46;;;;;;;3.70;3.60;;;;;;;7.53;100.00;103448.53;4327004;32;20084;-68
2021/12/17 05:50:11;;;;;;;4.53;4.32;;;;;;;7.56;100.00;103445.06;4336357;32;20094;-67
2021/12/17 05:52:36;;;;;;;4.28;4.07;;;;;;;7.58;100.00;103444.22;4333440;32;20097;-67
2021/12/17 05:55:02;;;;;;;5.68;5.20;;;;;;;7.41;100.00;103411.88;4325881;32;20099;-67
2021/12/17 05:57:27;;;;;;;4.00;3.80;;;;;;;7.55;100.00;103444.19;4349508;32;20066;-67
2021/12/17 05:59:53;;;;;;;3.62;3.53;;;;;;;7.61;100.00;103447.69;4353563;32;20089;-67
2021/12/17 06:02:19;;;;;;;4.65;4.35;;;;;;;7.46;100.00;103420.63;4354668;32;20729;-68
2021/12/17 06:04:45;;;;;;;3.70;3.60;;;;;;;7.58;100.00;103449.44;4351146;32;20183;-67
2021/12/17 06:07:10;;;;;;;4.40;4.20;;;;;;;7.59;100.00;103443.31;4347348;32;20444;-68
2021/12/17 06:09:36;;;;;;;4.00;3.80;;;;;;;7.52;100.00;103436.34;4351910;32;20655;-67
2021/12/17 06:12:01;;;;;;;5.00;4.80;;;;;;;7.57;100.00;103452.91;4345654;32;20085;-67
2021/12/17 06:14:26;;;;;;;4.28;4.07;;;;;;;7.52;100.00;103449.41;4344890;32;20204;-68
2021/12/17 06:16:52;;;;;;;4.30;4.15;;;;;;;7.18;100.00;103386.53;4343948;32;20631;-68
2021/12/17 06:19:19;;;;;;;4.45;4.07;;;;;;;7.54;100.00;103446.81;4330527;32;20506;-67
2021/12/17 06:21:46;;;;;;;4.55;4.35;;;;;;;7.55;100.00;103449.41;4361194;32;20631;-67
2021/12/17 06:24:11;;;;;;;5.12;4.93;;;;;;;7.40;100.00;103428.44;4346549;32;20165;-67
2021/12/17 06:26:37;;;;;;;4.22;4.03;;;;;;;7.51;100.00;103452.88;4346965;32;20077;-67
2021/12/17 06:29:02;;;;;;;5.50;5.20;;;;;;;7.51;100.00;103438.94;4367248;32;20085;-68
2021/12/17 06:31:28;;;;;;;3.60;3.50;;;;;;;7.53;100.00;103445.03;4340712;32;20949;-68
2021/12/17 06:33:53;;;;;;;4.37;4.18;;;;;;;7.53;100.00;103445.03;4344149;32;20058;-67
2021/12/17 06:36:18;;;;;;;4.93;4.50;;;;;;;7.42;100.00;103431.03;4341236;32;20153;-69
2021/12/17 06:38:44;;;;;;;4.03;3.83;;;;;;;7.52;100.00;103446.78;4348673;32;20123;-66
2021/12/17 06:41:09;;;;;;;4.80;4.40;;;;;;;7.51;100.00;103450.25;4329437;32;20070;-67
2021/12/17 06:43:40;;;;;;;4.80;4.60;;;;;;;7.53;100.00;103453.75;4348594;32;20088;-66
2021/12/17 06:48:40;;;;;;;4.00;3.80;;;;;;;7.52;100.00;103452.03;4351412;32;20077;-66
2021/12/17 06:57:44;;;;;;;3.80;3.70;;;;;;;7.58;100.00;103459.88;4348818;32;20560;-66
2021/12/17 07:10:41;;;;;;;4.40;4.20;;;;;;;7.56;100.00;103458.13;4370196;32;20130;-67
2021/12/17 07:18:49;;;;;;;4.45;4.03;;;;;;;7.51;100.00;103452.88;4353988;32;20084;-68
2021/12/17 07:28:09;;;;;;;6.07;5.70;;;;;;;7.54;100.00;103439.84;4352846;32;20061;-67
2021/12/17 07:34:07;;;;;;;5.95;5.65;;;;;;;7.13;100.00;103393.44;4354032;32;20132;-67
2021/12/17 07:39:10;;;;;;;4.65;4.35;;;;;;;7.54;100.00;103460.75;4360631;32;20939;-67
2021/12/17 07:41:35;;;;;;;6.45;4.07;;;;;;;7.57;100.00;103465.97;4347135;32;20070;-67
2021/12/17 07:44:02;;;;;;;5.12;4.93;;;;;;;7.59;100.00;103469.47;4343994;32;20109;-67
2021/12/17 07:46:27;;;;;;;5.03;4.60;;;;;;;7.63;100.00;103478.19;4346049;32;20136;-66
2021/12/17 07:48:53;;;;;;;5.28;5.03;;;;;;;7.65;100.00;103471.22;4337709;32;20576;-67
2021/12/17 07:51:19;;;;;;;4.62;4.43;;;;;;;7.58;100.00;103465.12;4345809;32;20082;-67
2021/12/17 07:53:44;;;;;;;4.45;4.25;;;;;;;7.56;100.00;103473.81;4348154;32;20078;-68
2021/12/17 07:56:11;;;;;;;6.32;6.03;;;;;;;7.56;100.00;103472.06;4343900;32;20153;-67
2021/12/17 07:58:36;;;;;;;5.72;5.45;;;;;;;7.58;100.00;103475.56;4350559;32;20124;-68
2021/12/17 08:01:03;;;;;;;5.43;5.15;;;;;;;6.79;100.00;103343.69;4344508;32;20141;-72
2021/12/17 08:03:28;;;;;;;3.60;3.50;;;;;;;7.62;100.00;103483.41;4334643;32;20152;-71
2021/12/17 08:05:54;;;;;;;5.60;5.30;;;;;;;7.50;100.00;103458.13;4342794;32;20070;-72
2021/12/17 08:08:19;;;;;;;4.10;3.90;;;;;;;7.66;100.00;103487.78;4333647;32;20177;-70
2021/12/17 08:10:47;;;;;;;4.07;3.87;;;;;;;7.66;100.00;103499.12;4341397;32;20074;-71
2021/12/17 08:13:19;;;;;;;3.72;3.60;;;;;;;7.68;100.00;103502.62;4344810;32;20085;-69
2021/12/17 08:15:57;;;;;;;4.93;4.72;;;;;;;7.71;100.00;103499.16;4339630;32;20078;-72
2021/12/17 08:18:43;;;;;;;4.20;4.00;;;;;;;7.71;100.00;103499.16;4346399;32;20196;-71
2021/12/17 08:31:32;;;;;;;4.50;4.30;;;;;;;7.51;100.00;103452.88;4344684;32;20207;-70
2021/12/17 08:33:58;;;;;;;4.65;4.45;;;;;;;7.49;100.00;103452.00;4347504;32;20105;-70
2021/12/17 08:36:23;;;;;;;3.70;3.60;;;;;;;7.73;100.00;103505.25;4343106;32;20070;-70
2021/12/17 08:38:49;;;;;;;4.37;4.18;;;;;;;7.72;100.00;103503.53;4351422;32;20719;-68
2021/12/17 08:41:15;;;;;;;3.95;3.75;;;;;;;7.75;100.00;103501.78;4347417;32;20130;-69
2021/12/17 08:43:41;;;;;;;4.10;3.90;;;;;;;7.77;100.00;103501.78;4348807;32;20092;-69
2021/12/17 08:46:06;;;;;;;6.68;6.32;;;;;;;7.83;100.00;103503.56;4342000;32;20162;-67
2021/12/17 08:48:32;;;;;;;4.15;3.97;;;;;;;7.83;100.00;103512.28;4349911;32;20073;-68
2021/12/17 08:50:57;;;;;;;5.82;5.53;;;;;;;7.78;100.00;103516.62;4342627;32;20105;-67
2021/12/17 08:53:23;;;;;;;4.55;4.28;;;;;;;7.77;100.00;103522.69;4365097;32;20214;-67
2021/12/17 08:55:48;;;;;;;4.10;3.90;;;;;;;7.72;100.00;103530.53;4334183;32;20473;-67
2021/12/17 08:58:14;;;;;;;4.10;3.90;;;;;;;7.69;100.00;103524.41;4359073;32;20875;-66
2021/12/17 09:00:43;;;;;;;4.00;3.80;;;;;;;7.57;100.00;103518.22;4344856;32;20078;-68
2021/12/17 09:03:09;;;;;;;5.70;5.45;;;;;;;7.50;100.00;103500.78;4338239;32;20086;-70
2021/12/17 09:05:37;;;;;;;3.90;3.70;;;;;;;7.63;100.00;103519.16;4346778;32;20085;-69
2021/12/17 09:08:03;;;;;;;5.47;5.20;;;;;;;7.64;100.00;103518.25;4357079;32;20094;-72
2021/12/17 09:10:29;;;;;;;4.18;3.97;;;;;;;6.27;100.00;103285.91;4346328;32;20094;-69
2021/12/17 09:12:54;;;;;;;5.68;5.32;;;;;;;7.70;100.00;103542.72;4340668;32;20074;-72
2021/12/17 09:15:20;;;;;;;4.45;4.15;;;;;;;7.70;100.00;103539.25;4331231;32;20605;-71
2021/12/17 09:17:49;;;;;;;14.60;13.90;;;;;;;7.71;100.00;103544.44;4325546;32;20317;-68
2021/12/17 09:20:15;;;;;;;4.10;3.90;;;;;;;7.74;100.00;103541.00;4297532;32;20074;-69
2021/12/17 09:22:40;;;;;;;3.83;3.67;;;;;;;7.71;100.00;103539.22;4361689;32;20220;-68
2021/12/17 09:25:06;;;;;;;5.35;5.07;;;;;;;7.68;100.00;103547.06;4355239;32;20070;-69
2021/12/17 09:27:32;;;;;;;3.87;3.72;;;;;;;7.78;100.00;103537.53;4364232;32;20081;-69
2021/12/17 09:29:57;;;;;;;5.60;5.37;;;;;;;7.82;100.00;103536.69;4356755;32;20066;-68
2021/12/17 09:32:23;;;;;;;4.25;4.05;;;;;;;7.85;100.00;103528.84;4343575;32;20481;-69
2021/12/17 09:34:48;;;;;;;3.95;3.75;;;;;;;7.83;100.00;103530.56;4361303;32;20078;-68
2021/12/17 09:37:14;;;;;;;4.10;3.90;;;;;;;7.87;100.00;103534.09;4343527;32;20081;-68
2021/12/17 09:39:39;;;;;;;4.20;4.00;;;;;;;7.12;100.00;103399.56;4362543;32;20094;-69
2021/12/17 09:42:05;;;;;;;3.60;3.50;;;;;;;6.88;100.00;103383.75;4342622;32;20137;-69
2021/12/17 09:44:30;;;;;;;3.80;3.65;;;;;;;7.93;100.00;103541.94;4356822;32;20478;-70
2021/12/17 09:46:57;;;;;;;4.80;4.60;;;;;;;7.95;100.00;103546.31;4358666;32;20084;-69
2021/12/17 09:49:23;;;;;;;3.50;3.40;;;;;;;7.81;100.00;103536.66;4358502;32;20109;-68
2021/12/17 09:51:48;;;;;;;3.78;3.67;;;;;;;7.88;100.00;103552.41;4348817;32;20082;-69
2021/12/17 09:54:13;;;;;;;4.25;4.10;;;;;;;7.87;100.00;103557.63;4330349;32;20084;-69
2021/12/17 09:56:39;;;;;;;6.07;4.20;;;;;;;7.88;100.00;103564.59;4345027;32;20077;-70
2021/12/17 09:59:04;;;;;;;5.30;5.10;;;;;;;6.99;100.00;103405.56;4358684;32;21071;-76
2021/12/17 10:01:30;;;;;;;4.62;4.43;;;;;;;7.26;100.00;103454.50;4351421;32;20487;-75
2021/12/17 10:04:31;;;;;;;4.95;4.75;;;;;;;7.09;100.00;103422.16;4341754;32;20171;-76
2021/12/17 10:07:18;;;;;;;4.62;4.43;;;;;;;7.64;100.00;103507.81;4312911;33;20550;-75
2021/12/17 10:09:52;;;;;;;3.90;3.70;;;;;;;6.82;100.00;103383.72;4355313;32;20120;-76
2021/12/17 10:12:22;;;;;;;4.00;3.80;;;;;;;7.54;100.00;103489.47;4345615;32;20071;-76
2021/12/17 10:15:02;;;;;;;3.60;3.50;;;;;;;7.84;100.00;103527.09;4353985;32;20134;-76
2021/12/17 10:17:27;;;;;;;5.40;5.10;;;;;;;8.05;100.00;103546.38;4355016;32;20062;-78
2021/12/17 10:19:56;;;;;;;4.03;3.87;;;;;;;8.13;100.00;103539.41;4355972;32;20136;-77
2021/12/17 10:22:22;;;;;;;4.18;3.97;;;;;;;8.13;100.00;103537.66;4352434;32;20070;-76
2021/12/17 10:24:57;;;;;;;4.00;3.80;;;;;;;8.17;100.00;103549.03;4340637;32;20160;-76
2021/12/17 10:27:26;;;;;;;4.60;4.40;;;;;;;8.20;100.00;103554.28;4353049;32;20736;-77
2021/12/17 10:29:52;;;;;;;3.87;3.75;;;;;;;6.99;100.00;103338.53;4357757;32;20292;-77
2021/12/17 10:32:19;;;;;;;4.40;4.20;;;;;;;8.26;100.00;103558.63;4354043;32;20152;-76
2021/12/17 10:35:07;;;;;;;3.87;3.72;;;;;;;7.68;100.00;103450.34;4350898;32;20065;-76
2021/12/17 10:37:43;;;;;;;4.45;4.15;;;;;;;8.24;100.00;103549.91;4352686;32;20088;-76
2021/12/17 10:40:29;;;;;;;5.18;4.97;;;;;;;7.35;100.00;103388.34;4345079;32;20070;-76
2021/12/17 10:43:08;;;;;;;4.53;4.32;;;;;;;8.20;100.00;103533.34;4345294;32;20260;-77
2021/12/17 10:45:35;;;;;;;4.57;4.32;;;;;;;8.29;100.00;103545.59;4346821;32;20573;-77
2021/12/17 10:48:23;;;;;;;5.47;5.18;;;;;;;7.75;100.00;103459.94;4345771;32;20569;-76
2021/12/17 10:50:53;;;;;;;3.85;3.72;;;;;;;8.04;100.00;103492.28;4338707;32;20076;-75
2021/12/17 10:53:23;;;;;;;4.03;3.87;;;;;;;7.89;100.00;103457.37;4350522;32;20147;-76
2021/12/17 10:55:48;;;;;;;4.00;3.80;;;;;;;8.37;100.00;103542.09;4347908;32;20078;-76
2021/12/17 10:58:14;;;;;;;4.53;4.32;;;;;;;8.31;100.00;103515.06;4340716;32;20257;-75
2021/12/17 11:01:05;;;;;;;4.85;4.55;;;;;;;8.33;100.00;103519.41;4359474;32;20082;-76
2021/12/17 11:03:35;;;;;;;3.70;3.60;;;;;;;8.35;100.00;103522.91;4361149;32;20446;-76
2021/12/17 11:06:00;;;;;;;5.20;5.00;;;;;;;8.14;100.00;103486.25;4358006;32;20100;-76
2021/12/17 11:08:28;;;;;;;3.87;3.75;;;;;;;8.31;100.00;103525.53;4342885;32;20643;-76
2021/12/17 11:11:00;;;;;;;4.32;4.15;;;;;;;7.81;100.00;103422.50;4349069;32;20076;-76
2021/12/17 11:13:26;;;;;;;4.47;4.28;;;;;;;8.45;100.00;103528.22;4345846;32;20086;-76
2021/12/17 11:15:51;;;;;;;3.95;3.83;;;;;;;7.95;100.00;103435.63;4345909;32;20063;-75
2021/12/17 11:18:18;;;;;;;5.87;5.57;;;;;;;7.28;100.00;103324.75;4357943;32;20482;-77
2021/12/17 11:20:43;;;;;;;4.75;4.30;;;;;;;8.38;100.00;103527.31;4343408;32;20088;-78
2021/12/17 11:23:12;;;;;;;4.95;4.75;;;;;;;8.35;100.00;103543.84;4339014;32;20435;-76
2021/12/17 11:25:39;;;;;;;4.00;3.80;;;;;;;8.36;100.00;103537.75;4346203;32;20280;-76
2021/12/17 11:28:05;;;;;;;5.95;5.65;;;;;;;8.38;100.00;103528.16;4344044;32;20587;-77
2021/12/17 11:30:32;;;;;;;4.93;4.62;;;;;;;8.41;100.00;103524.72;4346159;32;20099;-77
2021/12/17 11:33:01;;;;;;;5.00;4.80;;;;;;;8.49;100.00;103527.34;4355619;32;20186;-76
2021/12/17 11:35:27;;;;;;;3.78;3.65;;;;;;;8.48;100.00;103526.50;4350928;32;20675;-76
2021/12/17 11:37:54;;;;;;;4.57;4.37;;;;;;;7.81;100.00;103398.97;4343772;32;20240;-76
2021/12/17 11:40:27;;;;;;;4.30;4.10;;;;;;;8.31;100.00;103489.75;4349735;32;20457;-77
2021/12/17 11:43:16;;;;;;;4.62;4.40;;;;;;;8.58;100.00;103530.00;4354026;32;20120;-76
2021/12/17 11:45:44;;;;;;;5.72;4.22;;;;;;;8.06;100.00;103438.25;4362102;32;20256;-74
2021/12/17 11:48:18;;;;;;;4.50;4.30;;;;;;;8.53;100.00;103529.97;4344426;32;20273;-75
2021/12/17 11:50:46;;;;;;;4.05;3.85;;;;;;;7.77;100.00;103386.75;4336412;32;20623;-75
2021/12/17 11:53:22;;;;;;;5.35;4.93;;;;;;;7.76;100.00;103395.50;4359337;32;20640;-75
2021/12/17 11:55:57;;;;;;;3.90;3.70;;;;;;;8.55;100.00;103530.84;4351635;32;20124;-76
2021/12/17 11:58:41;;;;;;;4.20;4.00;;;;;;;8.52;100.00;103545.66;4361161;32;20097;-76
2021/12/17 12:01:07;;;;;;;5.55;5.35;;;;;;;8.41;100.00;103521.19;4359952;32;20096;-75
2021/12/17 12:03:32;;;;;;;4.28;4.07;;;;;;;8.55;100.00;103530.84;4352832;32;20423;-74
2021/12/17 12:05:59;;;;;;;5.20;5.00;;;;;;;8.24;100.00;103477.56;4346151;32;20082;-75
2021/12/17 12:08:40;;;;;;;4.10;3.92;;;;;;;8.33;100.00;103493.25;4348071;32;20846;-75
2021/12/17 12:11:09;;;;;;;5.22;5.03;;;;;;;8.36;100.00;103492.41;4360324;32;20086;-75
2021/12/17 12:13:42;;;;;;;3.80;3.70;;;;;;;8.56;100.00;103516.03;4358142;32;20078;-74
2021/12/17 12:16:09;;;;;;;5.85;5.55;;;;;;;8.52;100.00;103529.97;4363590;32;20584;-77
2021/12/17 12:18:45;;;;;;;3.92;3.75;;;;;;;8.54;100.00;103523.88;4349856;32;20062;-76
2021/12/17 12:21:15;;;;;;;4.80;4.60;;;;;;;8.23;100.00;103452.25;4360151;32;20247;-76
2021/12/17 12:23:42;;;;;;;3.80;3.60;;;;;;;8.23;100.00;103452.25;4354428;32;20156;-76
2021/12/17 12:26:21;;;;;;;7.45;5.22;;;;;;;8.51;100.00;103512.53;4346903;32;20082;-76
2021/12/17 12:28:50;;;;;;;5.10;4.80;;;;;;;8.66;100.00;103540.47;4349628;32;20070;-77
2021/12/17 12:31:28;;;;;;;4.00;3.80;;;;;;;8.69;100.00;103522.16;4342961;32;20145;-75
2021/12/17 12:36:46;;;;;;;4.35;4.15;;;;;;;8.67;100.00;103514.28;4362317;32;20054;-76
2021/12/17 12:39:17;;;;;;;4.72;4.50;;;;;;;8.66;100.00;103511.66;4359387;32;20552;-76
2021/12/17 12:41:58;;;;;;;4.15;3.95;;;;;;;8.70;100.00;103516.94;4361251;32;20078;-75
2021/12/17 12:44:39;;;;;;;4.37;4.18;;;;;;;8.70;100.00;103511.69;4366366;32;20168;-76
2021/12/17 12:47:04;;;;;;;6.68;6.35;;;;;;;8.30;100.00;103454.03;4361558;32;20153;-75
2021/12/17 12:49:46;;;;;;;5.70;5.35;;;;;;;8.61;100.00;103511.66;4354239;32;20090;-75
2021/12/17 12:52:27;;;;;;;5.97;5.53;;;;;;;8.59;100.00;103510.78;4366924;32;20086;-75
2021/12/17 12:54:54;;;;;;;5.45;5.18;;;;;;;8.47;100.00;103493.31;4367935;32;20583;-76
2021/12/17 12:57:29;;;;;;;9.15;4.97;;;;;;;8.51;100.00;103507.28;4347282;32;20766;-76
2021/12/17 12:59:57;;;;;;;4.90;4.70;;;;;;;8.52;100.00;103515.16;4355248;32;20072;-76
2021/12/17 13:02:25;;;;;;;6.45;5.95;;;;;;;8.51;100.00;103500.31;4359453;32;20084;-77
2021/12/17 13:04:55;;;;;;;21.45;9.00;;;;;;;8.57;100.00;103507.28;4349510;32;20128;-77
2021/12/17 13:07:43;;;;;;;10.55;9.82;;;;;;;8.18;100.00;103438.31;4345900;32;20182;-76
2021/12/17 13:10:16;;;;;;;7.78;7.25;;;;;;;8.54;100.00;103497.72;4336208;32;20449;-76
2021/12/17 13:12:41;;;;;;;4.12;3.92;;;;;;;8.47;100.00;103500.31;4348823;32;20378;-75
2021/12/17 13:15:19;;;;;;;5.35;5.15;;;;;;;7.86;100.00;103396.34;4349816;32;20096;-76
2021/12/17 13:23:19;;;;;;;4.65;4.45;;;;;;;8.36;100.00;103488.03;4346399;32;20078;-76
2021/12/17 13:25:44;;;;;;;3.65;3.55;;;;;;;8.46;100.00;103501.16;4350986;32;20600;-76
2021/12/17 13:28:10;;;;;;;4.57;4.35;;;;;;;8.52;100.00;103501.16;4336724;32;20081;-76
2021/12/17 13:30:35;;;;;;;3.85;3.65;;;;;;;8.04;100.00;103419.97;4349038;32;20112;-76
2021/12/17 13:33:01;;;;;;;5.65;5.35;;;;;;;8.53;100.00;103501.19;4348022;32;20062;-75
2021/12/17 13:35:27;;;;;;;3.60;3.50;;;;;;;8.51;100.00;103499.44;4363699;32;20623;-76
2021/12/17 13:38:01;;;;;;;3.92;3.72;;;;;;;8.52;100.00;103493.31;4348241;32;20105;-76
2021/12/17 13:40:27;;;;;;;4.03;3.85;;;;;;;8.48;100.00;103492.47;4357121;32;20111;-76
2021/12/17 13:42:56;;;;;;;4.32;4.12;;;;;;;8.46;100.00;103488.06;4332833;32;20599;-76
2021/12/17 13:45:21;;;;;;;3.50;3.40;;;;;;;8.34;100.00;103463.63;4347321;32;20088;-75
2021/12/17 13:47:54;;;;;;;3.70;3.60;;;;;;;8.01;100.00;103437.38;4341130;32;20075;-74
2021/12/17 13:50:25;;;;;;;3.60;3.50;;;;;;;8.42;100.00;103478.47;4356412;32;20695;-75
2021/12/17 13:52:54;;;;;;;3.80;3.70;;;;;;;8.44;100.00;103471.50;4371617;32;20105;-76
2021/12/17 13:55:22;;;;;;;4.10;3.90;;;;;;;8.42;100.00;103460.16;4350706;32;20062;-75
2021/12/17 13:57:47;;;;;;;3.70;3.60;;;;;;;8.41;100.00;103469.75;4346206;32;20078;-75
2021/12/17 14:00:15;;;;;;;3.62;3.53;;;;;;;8.41;100.00;103477.59;4347919;32;20337;-75
2021/12/17 14:02:42;;;;;;;4.30;4.10;;;;;;;7.71;100.00;103355.37;4351122;32;20560;-76
2021/12/17 14:05:09;;;;;;;5.15;4.95;;;;;;;8.29;100.00;103441.78;4360619;32;20090;-76
2021/12/17 14:07:35;;;;;;;4.10;3.90;;;;;;;8.43;100.00;103470.63;4365608;32;20061;-76
2021/12/17 14:10:10;;;;;;;4.95;4.75;;;;;;;8.34;100.00;103450.53;4349613;32;20690;-75
2021/12/17 14:12:39;;;;;;;4.00;3.80;;;;;;;8.41;100.00;103474.09;4351944;32;20062;-76
2021/12/17 14:15:10;;;;;;;4.93;4.72;;;;;;;7.53;100.00;103330.94;4350565;32;20689;-76
2021/12/17 14:17:40;;;;;;;3.90;3.70;;;;;;;8.39;100.00;103477.56;4351699;32;20074;-75
2021/12/17 14:20:09;;;;;;;5.68;5.37;;;;;;;8.38;100.00;103473.22;4353597;32;20147;-75
2021/12/17 14:22:36;;;;;;;4.40;4.10;;;;;;;8.09;100.00;103440.88;4353388;32;20511;-77